Time;durP1;ratioP1;P1;durP2;ratioP2;P2;SDS_P1;SDS_P2;PMS_P1;PMS_P2;Temp;Humidity;BMP_temperature;BMP_pressure;BME280_temperature;BME280_humidity;BME280_pressure;Samples;Min_cycle;Max_cycle;Signal;HPM_P1;HPM_P2
2023/12/06 00:00:09;;;;;;;10.93;6.38;;;;;;;-142.57;100.00;55496.97;4943577;28;20077;-86
2023/12/06 00:02:34;;;;;;;7.63;5.03;;;;;;;-142.57;100.00;55511.09;4937588;29;20039;-85
2023/12/06 00:05:00;;;;;;;8.75;5.10;;;;;;;-142.57;100.00;55507.06;4947963;28;20516;-86
2023/12/06 00:07:28;;;;;;;8.55;5.35;;;;;;;-142.57;100.00;55503.03;4938474;29;20035;-86
2023/12/06 00:09:54;;;;;;;8.35;4.57;;;;;;;-142.57;100.00;55531.31;4954268;28;20031;-87
2023/12/06 00:12:19;;;;;;;6.57;4.40;;;;;;;-142.57;100.00;55537.38;4947475;28;20045;-86
2023/12/06 00:14:45;;;;;;;10.32;4.45;;;;;;;-142.57;100.00;55515.16;4950163;28;20491;-85
2023/12/06 00:17:11;;;;;;;8.55;4.85;;;;;;;-142.57;100.00;55498.97;4958558;28;20042;-85
2023/12/06 00:19:36;;;;;;;7.60;3.78;;;;;;;-142.57;100.00;55523.22;4950740;28;20042;-86
2023/12/06 00:22:02;;;;;;;6.15;4.20;;;;;;;-142.57;100.00;55525.25;4946636;28;20090;-88
2023/12/06 00:24:28;;;;;;;5.28;3.67;;;;;;;-142.57;100.00;55515.16;4954477;28;20042;-87
2023/12/06 00:26:53;;;;;;;6.85;4.15;;;;;;;-142.57;100.00;55519.19;4939148;29;20035;-85
2023/12/06 00:29:19;;;;;;;5.30;3.65;;;;;;;-142.57;100.00;55555.56;4938927;29;20038;-87
2023/12/06 00:31:44;;;;;;;4.95;3.40;;;;;;;-142.57;100.00;55525.25;4938752;29;20119;-86
2023/12/06 00:34:10;;;;;;;10.50;3.80;;;;;;;-142.57;100.00;55535.34;4947892;28;20051;-89
2023/12/06 00:36:35;;;;;;;8.32;3.50;;;;;;;-142.57;100.00;55496.97;4944634;28;20039;-89
2023/12/06 00:39:01;;;;;;;5.88;3.60;;;;;;;-142.57;100.00;55470.69;4937593;28;20038;-89
2023/12/06 00:41:26;;;;;;;4.97;3.53;;;;;;;-142.57;100.00;55498.97;4943723;28;20095;-88
2023/12/06 00:43:53;;;;;;;6.15;3.90;;;;;;;-142.57;100.00;55513.13;4941012;28;20475;-88
2023/12/06 00:46:19;;;;;;;7.18;3.67;;;;;;;-142.57;100.00;55525.25;4941584;29;20043;-84
2023/12/06 00:48:45;;;;;;;5.65;3.03;;;;;;;-142.57;100.00;55515.16;4930958;29;20114;-89
2023/12/06 00:51:10;;;;;;;3.67;2.95;;;;;;;-142.57;100.00;55464.63;4918825;28;20027;-87
2023/12/06 00:53:36;;;;;;;5.53;3.60;;;;;;;-142.57;100.00;55519.19;4935027;28;20063;-85
2023/12/06 00:56:01;;;;;;;14.35;3.30;;;;;;;-142.57;100.00;55519.19;4932074;28;20118;-86
2023/12/06 00:58:30;;;;;;;4.18;2.80;;;;;;;-142.57;100.00;55519.19;4944702;28;20062;-85
2023/12/06 01:00:55;;;;;;;6.82;3.22;;;;;;;-142.57;100.00;55450.50;4958302;28;20032;-85
2023/12/06 01:03:21;;;;;;;5.95;3.25;;;;;;;-142.57;100.00;55482.81;4948620;28;20044;-84
2023/12/06 01:05:46;;;;;;;5.60;3.28;;;;;;;-142.57;100.00;55446.44;4930155;29;20131;-89
2023/12/06 01:08:12;;;;;;;4.47;2.85;;;;;;;-142.57;100.00;55462.63;4943615;28;20063;-86
2023/12/06 01:10:37;;;;;;;6.53;3.28;;;;;;;-142.57;100.00;55462.63;4941075;28;20028;-87
2023/12/06 01:13:03;;;;;;;4.72;3.15;;;;;;;-142.57;100.00;55448.47;4941689;28;20114;-88
2023/12/06 01:15:29;;;;;;;4.72;3.10;;;;;;;-142.57;100.00;55462.63;4947332;28;20040;-88
2023/12/06 01:17:55;;;;;;;5.80;3.40;;;;;;;-142.57;100.00;55466.66;4950141;28;20037;-89
2023/12/06 01:20:22;;;;;;;5.75;3.45;;;;;;;-142.57;100.00;55450.50;4945568;28;20067;-88
2023/12/06 01:22:48;;;;;;;9.07;4.03;;;;;;;-142.57;100.00;55438.38;4951086;28;20029;-87
2023/12/06 01:25:13;;;;;;;6.25;3.78;;;;;;;-142.57;100.00;55482.81;4946779;28;20394;-86
2023/12/06 01:27:39;;;;;;;7.28;3.85;;;;;;;-142.57;100.00;55470.69;4942207;29;20043;-87
2023/12/06 01:30:05;;;;;;;6.40;3.70;;;;;;;-142.57;100.00;55490.91;4943871;28;20446;-87
2023/12/06 01:32:30;;;;;;;6.40;3.83;;;;;;;-142.57;100.00;55498.97;4950257;28;20032;-89
2023/12/06 01:34:56;;;;;;;7.43;3.70;;;;;;;-142.57;100.00;55498.97;4947106;28;20043;-88
2023/12/06 01:37:22;;;;;;;5.25;3.67;;;;;;;-142.57;100.00;55539.38;4942195;28;20153;-88
2023/12/06 01:39:47;;;;;;;6.85;3.80;;;;;;;-142.57;100.00;55498.97;4947422;28;20364;-87
2023/12/06 01:42:13;;;;;;;6.40;3.33;;;;;;;-142.57;100.00;55527.28;4954944;28;20027;-87
2023/12/06 01:44:38;;;;;;;5.60;3.35;;;;;;;-142.57;100.00;55523.22;4947651;28;20032;-88
2023/12/06 01:47:05;;;;;;;6.18;3.22;;;;;;;-142.57;100.00;55507.06;4936221;29;20039;-89
2023/12/06 01:49:32;;;;;;;7.35;3.47;;;;;;;-142.57;100.00;55515.16;4928904;28;20089;-87
2023/12/06 01:51:58;;;;;;;3.90;2.92;;;;;;;-142.57;100.00;55515.16;4948374;28;20047;-85
2023/12/06 01:54:26;;;;;;;5.25;3.72;;;;;;;-142.57;100.00;55507.06;4948325;28;20055;-86
2023/12/06 01:56:53;;;;;;;4.18;2.80;;;;;;;-142.57;100.00;55507.06;4950255;28;20122;-86
2023/12/06 01:59:19;;;;;;;4.03;2.92;;;;;;;-142.57;100.00;55470.69;4947610;28;20410;-89
2023/12/06 02:01:44;;;;;;;5.18;2.85;;;;;;;-142.57;100.00;55503.03;4954919;28;20031;-87
2023/12/06 02:04:11;;;;;;;3.35;2.28;;;;;;;-142.57;100.00;55511.09;4947517;28;20067;-84
2023/12/06 02:06:36;;;;;;;4.35;2.75;;;;;;;-142.57;100.00;55521.22;4945613;28;20035;-91
2023/12/06 02:09:03;;;;;;;3.85;2.42;;;;;;;-142.57;100.00;55531.31;4930386;28;20039;-89
2023/12/06 02:11:29;;;;;;;3.42;2.75;;;;;;;-142.57;100.00;55509.09;4942380;28;20036;-89
2023/12/06 02:13:54;;;;;;;3.20;2.00;;;;;;;-142.57;100.00;55507.06;4949866;28;20043;-89
2023/12/06 02:16:20;;;;;;;3.35;2.42;;;;;;;-142.57;100.00;55543.44;4946598;28;20037;-87
2023/12/06 02:18:45;;;;;;;4.03;2.30;;;;;;;-142.57;100.00;55511.09;4946314;28;20064;-88
2023/12/06 02:21:14;;;;;;;5.35;2.70;;;;;;;-142.57;100.00;55476.75;4941153;28;20042;-88
2023/12/06 02:23:42;;;;;;;5.68;2.85;;;;;;;-142.57;100.00;55503.03;4950916;28;20027;-87
2023/12/06 02:26:08;;;;;;;3.60;2.55;;;;;;;-142.57;100.00;55480.78;4944306;28;20682;-86
2023/12/06 02:28:36;;;;;;;3.78;2.15;;;;;;;-142.57;100.00;55503.03;4949351;28;20447;-87
2023/12/06 02:31:03;;;;;;;2.92;2.35;;;;;;;-142.57;100.00;55486.84;4960431;28;20035;-84
2023/12/06 02:33:31;;;;;;;4.28;2.50;;;;;;;-142.57;100.00;55450.50;4966830;28;20046;-85
2023/12/06 02:36:00;;;;;;;2.55;2.10;;;;;;;-142.57;100.00;55466.66;4970312;28;20043;-86
2023/12/06 02:38:27;;;;;;;3.17;2.30;;;;;;;-142.57;100.00;55442.41;4959808;28;20082;-85
2023/12/06 02:40:56;;;;;;;4.47;2.50;;;;;;;-142.57;100.00;55450.50;4960363;28;20172;-88
2023/12/06 02:43:25;;;;;;;4.05;2.53;;;;;;;-142.57;100.00;55460.59;4956187;28;20059;-87
2023/12/06 02:45:51;;;;;;;5.22;2.88;;;;;;;-142.57;100.00;55442.41;4959396;28;20070;-86
2023/12/06 02:48:17;;;;;;;3.80;2.65;;;;;;;-142.57;100.00;55399.97;4948989;28;20027;-89
2023/12/06 02:50:42;;;;;;;5.28;2.97;;;;;;;-142.57;100.00;55408.06;4951479;28;20055;-88
2023/12/06 02:53:08;;;;;;;6.30;3.40;;;;;;;-142.57;100.00;55432.31;4948164;28;20479;-85
2023/12/06 02:55:33;;;;;;;4.40;3.25;;;;;;;-142.57;100.00;55422.22;4940732;28;20036;-87
2023/12/06 02:57:59;;;;;;;6.95;3.75;;;;;;;-142.57;100.00;55454.53;4944612;28;20186;-82
2023/12/06 03:00:24;;;;;;;7.85;3.88;;;;;;;-142.57;100.00;55422.22;4926447;28;20426;-86
2023/12/06 03:02:50;;;;;;;7.10;3.30;;;;;;;-142.57;100.00;55416.16;4953892;28;20378;-87
2023/12/06 03:05:16;;;;;;;7.85;3.30;;;;;;;-142.57;100.00;55474.72;4948477;28;20027;-89
2023/12/06 03:07:41;;;;;;;4.95;3.13;;;;;;;-142.57;100.00;55478.78;4946698;28;20035;-88
2023/12/06 03:10:07;;;;;;;5.63;3.40;;;;;;;-142.57;100.00;55486.84;4921629;29;20036;-92
2023/12/06 03:12:32;;;;;;;7.90;3.53;;;;;;;-142.57;100.00;55458.56;4939184;29;20038;-88
2023/12/06 03:14:58;;;;;;;7.53;4.28;;;;;;;-142.57;100.00;55496.97;4948229;28;20063;-88
2023/12/06 03:17:23;;;;;;;7.85;3.88;;;;;;;-142.57;100.00;55498.97;4951740;28;20043;-86
2023/12/06 03:19:49;;;;;;;5.57;3.47;;;;;;;-142.57;100.00;55462.63;4939580;28;20124;-90
2023/12/06 03:22:15;;;;;;;9.45;3.53;;;;;;;-142.57;100.00;55430.28;4940523;29;21492;-89
2023/12/06 03:24:40;;;;;;;5.70;3.60;;;;;;;-142.57;100.00;55430.28;4941559;28;20483;-90
2023/12/06 03:27:06;;;;;;;6.38;3.38;;;;;;;-142.57;100.00;55460.59;4946473;28;20051;-89
2023/12/06 03:29:31;;;;;;;7.60;3.72;;;;;;;-142.57;100.00;55446.44;4957204;28;20043;-87
2023/12/06 03:31:57;;;;;;;6.28;3.40;;;;;;;-142.57;100.00;55426.25;4952398;28;20031;-90
2023/12/06 03:34:22;;;;;;;7.28;3.60;;;;;;;-142.57;100.00;55414.13;4940963;28;20047;-88
2023/12/06 03:36:49;;;;;;;4.47;3.05;;;;;;;-142.57;100.00;55424.22;4921906;29;20055;-87
2023/12/06 03:39:16;;;;;;;5.78;3.67;;;;;;;-142.57;100.00;55442.41;4938534;29;20510;-90
2023/12/06 03:41:41;;;;;;;5.25;3.45;;;;;;;-142.57;100.00;55434.31;4933554;29;20050;-89
2023/12/06 03:44:06;;;;;;;8.02;3.70;;;;;;;-142.57;100.00;55454.53;4952020;28;20109;-90
2023/12/06 03:46:32;;;;;;;5.38;3.25;;;;;;;-142.57;100.00;55406.03;4957961;28;20398;-90
2023/12/06 03:48:57;;;;;;;4.45;3.22;;;;;;;-142.57;100.00;55402.00;4957851;28;20123;-90
2023/12/06 03:51:23;;;;;;;5.97;3.80;;;;;;;-142.57;100.00;55460.59;4945462;28;20090;-87
2023/12/06 03:53:49;;;;;;;4.20;3.20;;;;;;;-142.57;100.00;55476.75;4944197;28;20032;-88
2023/12/06 03:56:15;;;;;;;5.07;3.28;;;;;;;-142.57;100.00;55468.69;4942385;28;20032;-85
2023/12/06 03:58:41;;;;;;;5.90;3.78;;;;;;;-142.57;100.00;55454.53;4934246;28;20027;-85
2023/12/06 04:01:07;;;;;;;5.70;3.30;;;;;;;-142.57;100.00;55402.00;4958493;28;20073;-87
2023/12/06 04:03:36;;;;;;;7.47;4.50;;;;;;;-142.57;100.00;55438.38;4952133;28;20522;-89
2023/12/06 04:06:04;;;;;;;11.02;4.88;;;;;;;-142.57;100.00;55389.88;4968374;28;20059;-86
2023/12/06 04:08:29;;;;;;;8.32;4.75;;;;;;;-142.57;100.00;55408.06;4966167;28;20027;-87
2023/12/06 04:10:55;;;;;;;10.50;4.90;;;;;;;-142.57;100.00;55418.16;4961148;28;20099;-89
2023/12/06 04:13:20;;;;;;;12.88;5.45;;;;;;;-142.57;100.00;55397.97;4954964;28;20090;-89
2023/12/06 04:15:46;;;;;;;12.60;6.18;;;;;;;-142.57;100.00;55395.94;4966486;28;20103;-87
2023/12/06 04:18:11;;;;;;;10.65;5.28;;;;;;;-142.57;100.00;55424.22;4949559;28;20050;-87
2023/12/06 04:20:37;;;;;;;8.73;4.60;;;;;;;-142.57;100.00;55422.22;4953487;28;20126;-89
2023/12/06 04:23:06;;;;;;;7.13;3.65;;;;;;;-142.57;100.00;55422.22;4956074;28;20031;-86
2023/12/06 04:25:31;;;;;;;8.02;4.03;;;;;;;-142.57;100.00;55442.41;4966961;28;20046;-86
2023/12/06 04:27:57;;;;;;;5.22;3.40;;;;;;;-142.57;100.00;55432.31;4926948;29;20043;-85
2023/12/06 04:30:22;;;;;;;6.05;3.38;;;;;;;-142.57;100.00;55422.22;4928309;29;20032;-84
2023/12/06 04:32:48;;;;;;;5.88;2.72;;;;;;;-142.57;100.00;55418.16;4961673;28;20039;-85
2023/12/06 04:35:16;;;;;;;4.95;3.50;;;;;;;-142.57;100.00;55456.56;4956317;28;20087;-86
2023/12/06 04:37:42;;;;;;;5.18;3.10;;;;;;;-142.57;100.00;55410.09;4944301;29;20122;-87
2023/12/06 04:40:08;;;;;;;12.80;3.58;;;;;;;-142.57;100.00;55442.41;4942867;29;20058;-87
2023/12/06 04:42:33;;;;;;;3.75;2.67;;;;;;;-142.57;100.00;55446.44;4939043;28;20035;-87
2023/12/06 04:44:59;;;;;;;5.30;3.10;;;;;;;-142.57;100.00;55402.00;4960251;28;20035;-86
2023/12/06 04:47:28;;;;;;;4.88;3.28;;;;;;;-142.57;100.00;55402.00;4966252;28;20391;-86
2023/12/06 04:49:53;;;;;;;3.63;2.55;;;;;;;-142.57;100.00;55412.09;4924671;29;20403;-86
2023/12/06 04:52:19;;;;;;;5.10;3.10;;;;;;;-142.57;100.00;55434.31;4941900;29;20028;-86
2023/12/06 04:54:47;;;;;;;4.20;2.70;;;;;;;-142.57;100.00;55402.00;4955496;28;20082;-85
2023/12/06 04:57:14;;;;;;;3.83;2.50;;;;;;;-142.57;100.00;55420.19;4945597;28;20046;-84
2023/12/06 04:59:39;;;;;;;4.15;2.60;;;;;;;-142.57;100.00;55414.13;4930256;28;20042;-87
2023/12/06 05:02:06;;;;;;;3.13;2.17;;;;;;;-142.57;100.00;55393.91;4949904;28;20035;-86
2023/12/06 05:04:33;;;;;;;5.05;2.63;;;;;;;-142.57;100.00;55410.09;4920748;29;20031;-84
2023/12/06 05:06:58;;;;;;;6.05;2.92;;;;;;;-142.57;100.00;55414.13;4943842;28;20059;-86
2023/12/06 05:09:23;;;;;;;5.82;3.28;;;;;;;-142.57;100.00;55397.97;4955797;28;20127;-85
2023/12/06 05:11:49;;;;;;;4.50;2.45;;;;;;;-142.57;100.00;55373.72;4948419;28;20394;-84
2023/12/06 05:14:15;;;;;;;4.30;2.10;;;;;;;-142.57;100.00;55414.13;4954283;28;20039;-87
2023/12/06 05:16:40;;;;;;;3.58;2.05;;;;;;;-142.57;100.00;55389.88;4952084;28;20122;-87
2023/12/06 05:19:06;;;;;;;2.60;1.98;;;;;;;-142.57;100.00;55410.09;4949063;28;20463;-87
2023/12/06 05:21:32;;;;;;;2.28;1.73;;;;;;;-142.57;100.00;55416.16;4952450;28;20057;-86
2023/12/06 05:23:57;;;;;;;1.70;1.60;;;;;;;-142.57;100.00;55393.91;4961400;28;20087;-87
2023/12/06 05:26:26;;;;;;;4.93;2.58;;;;;;;-142.57;100.00;55385.84;4936228;28;20498;-87
2023/12/06 05:28:52;;;;;;;2.92;2.40;;;;;;;-142.57;100.00;55381.81;4955748;28;20055;-87
2023/12/06 05:31:18;;;;;;;3.83;2.88;;;;;;;-142.57;100.00;55381.81;4952977;28;20047;-86
2023/12/06 05:33:43;;;;;;;3.20;2.65;;;;;;;-142.57;100.00;55389.88;4947635;29;20392;-88
2023/12/06 05:36:28;;;;;;;5.15;2.83;;;;;;;-142.57;100.00;55397.97;4957824;28;20046;-87
2023/12/06 05:38:54;;;;;;;4.65;2.83;;;;;;;-142.57;100.00;55377.75;4957984;28;20031;-88
2023/12/06 05:41:20;;;;;;;6.95;3.50;;;;;;;-142.57;100.00;55399.97;4956689;28;20093;-88
2023/12/06 05:43:45;;;;;;;5.75;3.40;;;;;;;-142.57;100.00;55353.50;4951113;29;20148;-87
2023/12/06 05:46:11;;;;;;;8.32;3.78;;;;;;;-142.57;100.00;55389.88;4957347;28;20045;-85
2023/12/06 05:48:37;;;;;;;5.00;3.47;;;;;;;-142.57;100.00;55393.91;4948274;28;20035;-84
2023/12/06 05:51:03;;;;;;;5.68;3.90;;;;;;;-142.57;100.00;55414.13;4926017;28;20027;-84
2023/12/06 05:53:28;;;;;;;7.97;3.20;;;;;;;-142.57;100.00;55367.66;4943261;28;20094;-85
2023/12/06 05:55:56;;;;;;;3.97;2.95;;;;;;;-142.57;100.00;55355.53;4929228;29;20407;-85
2023/12/06 05:58:22;;;;;;;4.78;3.30;;;;;;;-142.57;100.00;55363.63;4935983;28;20042;-85
2023/12/06 06:00:47;;;;;;;3.40;2.65;;;;;;;-142.57;100.00;55371.69;4929856;29;20435;-87
2023/12/06 06:03:18;;;;;;;3.97;2.60;;;;;;;-142.57;100.00;55379.78;4953148;28;20127;-89
2023/12/06 06:05:44;;;;;;;5.32;2.38;;;;;;;-142.57;100.00;55414.13;4943774;29;20064;-88
2023/12/06 06:08:10;;;;;;;5.00;2.28;;;;;;;-142.57;100.00;55375.75;4946003;28;20027;-85
2023/12/06 06:10:35;;;;;;;3.28;2.17;;;;;;;-142.57;100.00;55399.97;4946862;28;20478;-83
2023/12/06 06:13:01;;;;;;;4.03;2.60;;;;;;;-142.57;100.00;55430.28;4932786;28;20117;-86
2023/12/06 06:15:26;;;;;;;8.00;3.17;;;;;;;-142.57;100.00;55430.28;4945555;28;20024;-83
2023/12/06 06:17:52;;;;;;;8.15;3.63;;;;;;;-142.57;100.00;55381.81;4928096;28;20410;-83
2023/12/06 06:20:17;;;;;;;9.07;3.63;;;;;;;-142.57;100.00;55402.00;4942247;28;20117;-83
2023/12/06 06:22:43;;;;;;;19.27;6.90;;;;;;;-142.57;100.00;55422.22;4926453;28;20023;-87
2023/12/06 06:25:09;;;;;;;17.95;6.20;;;;;;;-142.57;100.00;55422.22;4943321;28;20123;-83
2023/12/06 06:27:35;;;;;;;10.68;3.65;;;;;;;-142.57;100.00;55410.09;4936684;28;20043;-83
2023/12/06 06:30:00;;;;;;;8.23;4.32;;;;;;;-142.57;100.00;55412.09;4954769;28;20046;-87
2023/12/06 06:32:26;;;;;;;9.70;4.03;;;;;;;-142.57;100.00;55397.97;4954306;28;20027;-83
2023/12/06 06:34:51;;;;;;;18.60;6.78;;;;;;;-142.57;100.00;55361.59;4953843;28;20031;-84
2023/12/06 06:37:18;;;;;;;13.02;6.18;;;;;;;-142.57;100.00;55377.75;4947937;28;20055;-85
2023/12/06 06:39:43;;;;;;;11.52;4.93;;;;;;;-142.57;100.00;55345.44;4933509;28;20471;-87
2023/12/06 06:42:09;;;;;;;10.43;4.55;;;;;;;-142.57;100.00;55375.75;4949294;28;20074;-84
2023/12/06 06:44:37;;;;;;;11.00;4.32;;;;;;;-142.57;100.00;55345.44;4953332;28;20035;-82
2023/12/06 06:47:04;;;;;;;8.05;3.40;;;;;;;-142.57;100.00;55337.34;4934858;29;20062;-84
2023/12/06 06:49:30;;;;;;;5.18;2.80;;;;;;;-142.57;100.00;55335.34;4954274;28;20506;-82
2023/12/06 06:51:56;;;;;;;5.72;3.15;;;;;;;-142.57;100.00;55292.91;4956162;28;20043;-83
2023/12/06 06:54:21;;;;;;;7.57;2.40;;;;;;;-142.57;100.00;55361.59;4947802;28;20475;-87
2023/12/06 06:56:47;;;;;;;6.47;2.70;;;;;;;-142.57;100.00;55353.50;4943574;28;20039;-81
2023/12/06 06:59:12;;;;;;;4.82;3.03;;;;;;;-142.57;100.00;55410.09;4942641;28;20434;-83
2023/12/06 07:01:38;;;;;;;9.15;3.00;;;;;;;-142.57;100.00;55418.16;4949756;28;20039;-86
2023/12/06 07:04:03;;;;;;;3.80;2.20;;;;;;;-142.57;100.00;55397.97;4952744;28;20039;-83
2023/12/06 07:06:33;;;;;;;6.05;2.10;;;;;;;-142.57;100.00;55472.72;4948904;28;20458;-83
2023/12/06 07:08:58;;;;;;;4.72;1.80;;;;;;;-142.57;100.00;55478.78;4936318;29;20031;-86
2023/12/06 07:11:24;;;;;;;286.02;14.02;;;;;;;-142.57;100.00;55535.34;4936781;29;20075;-84
2023/12/06 07:13:49;;;;;;;78.22;7.40;;;;;;;-142.57;100.00;55565.66;4938551;29;20036;-84
2023/12/06 07:16:18;;;;;;;12.95;2.80;;;;;;;-142.57;100.00;55602.03;4938963;29;20107;-83
2023/12/06 07:18:44;;;;;;;5.38;2.95;;;;;;;-142.57;100.00;55563.63;4951064;28;20038;-84
2023/12/06 07:21:11;;;;;;;35.42;3.47;;;;;;;-142.57;100.00;55620.22;4942204;28;20024;-86
2023/12/06 07:23:37;;;;;;;4.40;2.53;;;;;;;-142.57;100.00;55753.56;4958368;28;20094;-84
2023/12/06 07:26:06;;;;;;;28.58;3.40;;;;;;;-142.57;100.00;55816.19;4959257;28;20043;-86
2023/12/06 07:28:31;;;;;;;159.40;7.78;;;;;;;-142.57;100.00;55838.44;4948725;28;20040;-84
2023/12/06 07:30:57;;;;;;;64.22;4.80;;;;;;;-142.57;100.00;55793.97;4944250;29;20040;-82
2023/12/06 07:33:22;;;;;;;60.53;5.55;;;;;;;-142.57;100.00;55723.25;4939086;29;20040;-84
2023/12/06 07:35:48;;;;;;;105.43;7.35;;;;;;;-142.57;100.00;55729.31;4941112;29;20123;-83
2023/12/06 07:38:13;;;;;;;444.90;22.10;;;;;;;-142.57;100.00;55866.72;4942606;28;20060;-82
2023/12/06 07:40:39;;;;;;;77.57;7.80;;;;;;;-142.57;100.00;55903.09;4938120;29;20038;-82
2023/12/06 07:43:05;;;;;;;172.30;11.23;;;;;;;-142.57;100.00;56004.13;4938249;29;20051;-82
2023/12/06 07:45:32;;;;;;;348.42;19.52;;;;;;;-142.57;100.00;56004.13;4939018;29;20039;-84
2023/12/06 07:47:57;;;;;;;130.32;10.48;;;;;;;-142.57;100.00;55769.72;4947942;28;20058;-81
2023/12/06 07:50:23;;;;;;;76.93;9.52;;;;;;;-142.57;100.00;55729.31;4958388;28;20039;-81
2023/12/06 07:52:50;;;;;;;43.15;8.25;;;;;;;-142.57;100.00;55729.31;4956309;28;20037;-85
2023/12/06 07:55:16;;;;;;;25.58;7.90;;;;;;;-142.57;100.00;55709.09;4957431;28;20030;-82
2023/12/06 07:57:42;;;;;;;220.10;16.20;;;;;;;-142.57;100.00;55638.41;4955755;28;20118;-83
2023/12/06 08:00:11;;;;;;;80.95;12.27;;;;;;;-142.57;100.00;55535.34;4958296;28;20046;-82
2023/12/06 08:02:41;;;;;;;236.25;18.95;;;;;;;-142.57;100.00;55563.63;4956599;28;20059;-82
2023/12/06 08:05:11;;;;;;;494.83;30.75;;;;;;;-142.57;100.00;55537.38;4958159;28;20106;-83
2023/12/06 08:07:37;;;;;;;40.08;11.00;;;;;;;-142.57;100.00;55547.47;4953487;28;20445;-84
2023/12/06 08:10:12;;;;;;;97.15;14.57;;;;;;;-142.57;100.00;55559.59;4939598;28;20043;-83
2023/12/06 08:12:38;;;;;;;50.05;11.98;;;;;;;-142.57;100.00;55579.81;4938398;29;20039;-81
2023/12/06 08:15:05;;;;;;;57.47;12.98;;;;;;;-142.57;100.00;55511.09;4937919;29;20067;-83
2023/12/06 08:17:31;;;;;;;205.63;18.55;;;;;;;-142.57;100.00;55523.22;4940976;29;20059;-84
2023/12/06 08:19:57;;;;;;;78.25;14.95;;;;;;;-142.57;100.00;55553.53;4948282;28;20027;-84
2023/12/06 08:22:22;;;;;;;44.90;14.32;;;;;;;-142.57;100.00;55577.78;4941556;29;20067;-83
2023/12/06 08:24:48;;;;;;;65.30;15.20;;;;;;;-142.57;100.00;55515.16;4936667;29;20229;-84
2023/12/06 08:27:14;;;;;;;30.02;13.95;;;;;;;-142.57;100.00;55505.03;4928530;29;20565;-83
2023/12/06 08:29:40;;;;;;;72.22;16.98;;;;;;;-142.57;100.00;55519.19;4956409;28;20126;-82
2023/12/06 08:32:07;;;;;;;44.58;15.00;;;;;;;-142.57;100.00;55539.38;4956604;28;20394;-85
2023/12/06 08:34:32;;;;;;;395.75;29.77;;;;;;;-142.57;100.00;55519.19;4929952;29;20047;-84
2023/12/06 08:36:58;;;;;;;33.50;16.13;;;;;;;-142.57;100.00;55527.28;4936727;29;20040;-84
2023/12/06 08:39:23;;;;;;;28.00;14.18;;;;;;;-142.57;100.00;55537.38;4936862;29;20038;-83
2023/12/06 08:41:49;;;;;;;39.45;14.63;;;;;;;-142.57;100.00;55529.28;4923676;29;20078;-82
2023/12/06 08:44:14;;;;;;;30.90;15.27;;;;;;;-142.57;100.00;55545.44;4956175;28;20042;-82
2023/12/06 08:46:42;;;;;;;42.72;14.85;;;;;;;-142.57;100.00;55547.47;4956172;28;20032;-83
2023/12/06 08:49:07;;;;;;;79.68;16.42;;;;;;;-142.57;100.00;55567.69;4955149;28;20059;-83
2023/12/06 08:51:33;;;;;;;33.30;14.52;;;;;;;-142.57;100.00;55595.97;4956280;28;20101;-82
2023/12/06 08:53:58;;;;;;;73.50;20.73;;;;;;;-142.57;100.00;55640.41;4937154;28;20078;-83
2023/12/06 08:56:24;;;;;;;31.23;13.50;;;;;;;-142.57;100.00;55597.97;4959029;28;20062;-83
2023/12/06 08:58:52;;;;;;;45.53;13.68;;;;;;;-142.57;100.00;55591.91;4959176;28;20027;-82
2023/12/06 09:01:18;;;;;;;106.25;18.35;;;;;;;-142.57;100.00;55634.34;4959568;28;20043;-82
2023/12/06 09:03:44;;;;;;;55.45;15.45;;;;;;;-142.57;100.00;55656.56;4944465;28;21253;-82
2023/12/06 09:06:09;;;;;;;74.60;16.08;;;;;;;-142.57;100.00;55632.34;4948919;28;20031;-82
2023/12/06 09:08:35;;;;;;;271.88;24.35;;;;;;;-142.57;100.00;55699.00;4946356;28;20028;-83
2023/12/06 09:11:00;;;;;;;122.20;13.00;;;;;;;-142.57;100.00;55688.91;4955672;28;20483;-83
2023/12/06 09:13:26;;;;;;;35.20;12.05;;;;;;;-142.57;100.00;55670.72;4938420;29;20055;-84
2023/12/06 09:15:52;;;;;;;106.03;13.52;;;;;;;-142.57;100.00;55662.63;4950999;28;20042;-83
2023/12/06 09:18:18;;;;;;;28.73;10.45;;;;;;;-142.57;100.00;55701.03;4949844;28;20031;-83
2023/12/06 09:20:43;;;;;;;48.08;10.40;;;;;;;-142.57;100.00;55705.06;4936943;29;20028;-85
2023/12/06 09:23:09;;;;;;;86.35;12.77;;;;;;;-142.57;100.00;55753.56;4919826;29;20036;-86
2023/12/06 09:25:34;;;;;;;47.40;11.38;;;;;;;-142.57;100.00;55755.59;4936452;28;20483;-85
2023/12/06 09:28:00;;;;;;;76.47;10.82;;;;;;;-142.57;100.00;55725.28;4955624;28;20081;-84
2023/12/06 09:30:25;;;;;;;158.05;17.92;;;;;;;-142.57;100.00;55715.16;4955665;28;20081;-85
2023/12/06 09:32:51;;;;;;;119.68;11.95;;;;;;;-142.57;100.00;55741.44;4955495;28;20085;-85
2023/12/06 09:35:16;;;;;;;51.83;8.23;;;;;;;-142.57;100.00;55717.19;4955622;28;20035;-84
2023/12/06 09:37:43;;;;;;;30.60;7.72;;;;;;;-142.57;100.00;55664.66;4955663;28;20051;-84
2023/12/06 09:40:09;;;;;;;83.88;9.75;;;;;;;-142.57;100.00;55660.63;4938486;28;20046;-81
2023/12/06 09:42:41;;;;;;;612.40;35.30;;;;;;;-142.57;100.00;55694.97;4960244;28;20035;-85
2023/12/06 09:45:07;;;;;;;450.83;26.10;;;;;;;-142.57;100.00;55699.00;4961792;28;20059;-85
2023/12/06 09:47:34;;;;;;;200.18;15.80;;;;;;;-142.57;100.00;55735.38;4957602;28;20063;-85
2023/12/06 09:49:59;;;;;;;13.95;8.00;;;;;;;-142.57;100.00;55705.06;4939058;29;20039;-84
2023/12/06 09:52:25;;;;;;;27.67;8.23;;;;;;;-142.57;100.00;55763.66;4955441;28;20089;-83
2023/12/06 09:54:51;;;;;;;67.05;11.18;;;;;;;-142.57;100.00;55802.06;4955481;28;20122;-85
2023/12/06 09:57:17;;;;;;;88.80;12.23;;;;;;;-142.57;100.00;55812.16;4955647;28;20047;-86
2023/12/06 09:59:42;;;;;;;29.83;11.00;;;;;;;-142.57;100.00;55836.41;4956549;28;20042;-83
2023/12/06 10:02:08;;;;;;;19.17;8.65;;;;;;;-142.57;100.00;55808.13;4942959;29;20082;-85
2023/12/06 10:04:34;;;;;;;73.93;12.30;;;;;;;-142.57;100.00;55802.06;4955519;28;20406;-85
2023/12/06 10:07:00;;;;;;;50.83;11.07;;;;;;;-142.57;100.00;55806.09;4938454;29;20035;-86
2023/12/06 10:09:26;;;;;;;30.38;10.02;;;;;;;-142.57;100.00;55810.13;4955667;28;20019;-85
2023/12/06 10:11:52;;;;;;;21.30;10.43;;;;;;;-142.57;100.00;55798.00;4956076;28;20035;-88
2023/12/06 10:14:18;;;;;;;47.83;12.35;;;;;;;-142.57;100.00;55802.06;4955936;28;20089;-86
2023/12/06 10:16:46;;;;;;;25.05;11.57;;;;;;;-142.57;100.00;55834.38;4955391;28;20478;-87
2023/12/06 10:19:12;;;;;;;32.88;13.55;;;;;;;-142.57;100.00;55806.09;4938573;29;20066;-86
2023/12/06 10:21:39;;;;;;;42.20;10.73;;;;;;;-142.57;100.00;55850.56;4955605;28;20493;-86
2023/12/06 10:24:07;;;;;;;38.45;14.15;;;;;;;-142.57;100.00;55818.22;4938273;28;20503;-86
2023/12/06 10:26:32;;;;;;;57.28;20.77;;;;;;;-142.57;100.00;55789.94;4955849;28;20043;-86
2023/12/06 10:28:58;;;;;;;20.88;11.27;;;;;;;-142.57;100.00;55812.16;4938520;28;20449;-86
2023/12/06 10:31:25;;;;;;;21.02;11.85;;;;;;;-142.57;100.00;55862.69;4956022;28;20047;-85
2023/12/06 10:33:57;;;;;;;21.20;11.48;;;;;;;-142.57;100.00;55826.31;4941678;29;20395;-86
2023/12/06 10:36:27;;;;;;;29.40;14.15;;;;;;;-142.57;100.00;55785.91;4956489;28;20490;-84
2023/12/06 10:38:55;;;;;;;37.13;13.70;;;;;;;-142.57;100.00;55798.00;4923010;29;20035;-88
2023/12/06 10:41:21;;;;;;;73.65;15.15;;;;;;;-142.57;100.00;55769.72;4956132;28;20490;-89
2023/12/06 10:43:47;;;;;;;27.48;14.63;;;;;;;-142.57;100.00;55777.81;4957323;28;20119;-87
2023/12/06 10:46:15;;;;;;;41.95;13.48;;;;;;;-142.57;100.00;55798.00;4941112;28;20039;-86
2023/12/06 10:48:42;;;;;;;239.50;24.52;;;;;;;-142.57;100.00;55793.97;4960612;28;20062;-87
2023/12/06 10:51:08;;;;;;;94.22;17.83;;;;;;;-142.57;100.00;55773.78;4961219;28;20031;-87
2023/12/06 10:53:33;;;;;;;54.38;15.48;;;;;;;-142.57;100.00;55741.44;4960972;28;20036;-85
2023/12/06 10:56:01;;;;;;;29.67;15.63;;;;;;;-142.57;100.00;55781.84;4942750;28;20043;-85
2023/12/06 10:58:26;;;;;;;30.13;15.23;;;;;;;-142.57;100.00;55781.84;4958137;28;20026;-87